Time;durP1;ratioP1;P1;durP2;ratioP2;P2;SDS_P1;SDS_P2;PMS_P1;PMS_P2;Temp;Humidity;BMP_temperature;BMP_pressure;BME280_temperature;BME280_humidity;BME280_pressure;Samples;Min_cycle;Max_cycle;Signal;HPM_P1;HPM_P2
2023/03/07 00:01:30;;;;;;;0.10;0.10;;;;;;;5.07;82.94;98895.94;6286000;22;20018;-76
2023/03/07 00:03:57;;;;;;;0.00;0.00;;;;;;;5.11;82.08;98896.22;6315230;22;19990;-78
2023/03/07 00:06:23;;;;;;;0.00;0.00;;;;;;;5.11;82.25;98892.69;6288700;22;20002;-77
2023/03/07 00:08:58;;;;;;;0.05;0.05;;;;;;;4.97;81.54;98871.53;6295876;22;20025;-80
2023/03/07 00:11:24;;;;;;;0.00;0.00;;;;;;;4.97;81.19;98870.72;6347459;22;20568;-77
2023/03/07 00:13:54;;;;;;;0.00;0.00;;;;;;;5.10;81.07;98880.25;6341018;22;20002;-78
2023/03/07 00:16:23;;;;;;;0.00;0.00;;;;;;;5.01;80.38;98867.22;6318283;22;20354;-79
2023/03/07 00:18:52;;;;;;;0.00;0.00;;;;;;;5.11;80.10;98876.44;6341376;22;20006;-79
2023/03/07 00:21:20;;;;;;;0.00;0.00;;;;;;;5.07;80.33;98863.44;6346968;22;20077;-79
2023/03/07 00:23:52;;;;;;;0.05;0.05;;;;;;;5.08;79.04;98866.94;6320362;22;20062;-80
2023/03/07 00:26:21;;;;;;;0.10;0.10;;;;;;;5.02;79.12;98858.00;6344245;22;20010;-80
2023/03/07 00:28:48;;;;;;;0.00;0.00;;;;;;;5.00;79.38;98852.03;6317600;22;20037;-79
2023/03/07 00:31:14;;;;;;;0.00;0.00;;;;;;;5.12;79.64;98870.75;6317576;22;20007;-79
2023/03/07 00:33:40;;;;;;;0.00;0.00;;;;;;;5.11;80.15;98865.59;6347074;22;19999;-80
2023/03/07 00:36:36;;;;;;;0.00;0.00;;;;;;;4.95;79.86;98835.78;6340858;22;20014;-79
2023/03/07 00:39:03;;;;;;;0.00;0.00;;;;;;;4.93;79.41;98840.63;6316530;22;19999;-80
2023/03/07 00:41:31;;;;;;;0.00;0.00;;;;;;;4.99;79.35;98842.25;6314769;22;20037;-80
2023/03/07 00:44:04;;;;;;;0.00;0.00;;;;;;;4.91;80.02;98829.25;6293593;22;20479;-80
2023/03/07 00:46:29;;;;;;;0.00;0.00;;;;;;;4.99;79.68;98847.69;6339284;22;20006;-77
2023/03/07 00:49:02;;;;;;;0.00;0.00;;;;;;;4.87;79.88;98822.75;6316014;22;19999;-77
2023/03/07 00:51:27;;;;;;;0.00;0.00;;;;;;;4.91;79.19;98829.25;6291660;22;20009;-78
2023/03/07 00:53:55;;;;;;;0.00;0.00;;;;;;;4.95;78.53;98832.25;6343580;22;20351;-78
2023/03/07 00:56:23;;;;;;;0.00;0.00;;;;;;;4.94;79.55;98834.16;6314394;22;20026;-78
2023/03/07 00:58:50;;;;;;;0.00;0.00;;;;;;;4.99;79.45;98842.25;6345007;22;20030;-79
2023/03/07 01:01:21;;;;;;;0.00;0.00;;;;;;;4.83;78.81;98824.34;6316786;22;20011;-80
2023/03/07 01:03:54;;;;;;;0.00;0.00;;;;;;;4.96;78.46;98848.22;6315631;22;20007;-79
2023/03/07 01:06:23;;;;;;;0.10;0.10;;;;;;;4.76;79.29;98811.09;6322756;22;20085;-80
2023/03/07 01:08:51;;;;;;;0.00;0.00;;;;;;;4.68;78.92;98804.28;6342756;22;20068;-80
2023/03/07 01:11:30;;;;;;;;;;;;;;;;;;;;;
2023/03/07 01:14:00;;;;;;;0.00;0.00;;;;;;;4.74;78.06;98804.31;6344945;22;20497;-79
2023/03/07 01:16:31;;;;;;;0.00;0.00;;;;;;;4.82;78.98;98825.44;6320535;22;20064;-79
2023/03/07 01:19:02;;;;;;;0.00;0.00;;;;;;;4.86;78.98;98837.38;6317069;22;20022;-79
2023/03/07 01:21:43;;;;;;;0.00;0.00;;;;;;;4.85;78.43;98819.50;6293644;22;20010;-78
2023/03/07 01:24:15;;;;;;;0.00;0.00;;;;;;;4.82;79.18;98814.59;6341611;22;20317;-78
2023/03/07 01:26:46;;;;;;;0.00;0.00;;;;;;;4.72;79.19;98797.25;6345939;22;20302;-78
2023/03/07 01:29:11;;;;;;;0.00;0.00;;;;;;;4.72;78.03;98794.53;6287719;22;20064;-78
2023/03/07 01:31:37;;;;;;;0.00;0.00;;;;;;;4.69;79.33;98794.28;6320090;22;20393;-79
2023/03/07 01:34:04;;;;;;;0.00;0.00;;;;;;;4.78;78.86;98808.13;6316606;22;20007;-78
2023/03/07 01:36:34;;;;;;;0.00;0.00;;;;;;;4.77;78.54;98803.78;6342454;22;20009;-79
2023/03/07 01:39:20;;;;;;;0.00;0.00;;;;;;;4.68;78.81;98790.75;6339295;22;19994;-79
2023/03/07 01:41:46;;;;;;;0.00;0.00;;;;;;;4.58;78.72;98779.09;6265786;22;20021;-78
2023/03/07 01:44:14;;;;;;;0.00;0.00;;;;;;;4.71;78.95;98797.53;6312629;22;19995;-78
2023/03/07 01:46:47;;;;;;;0.00;0.00;;;;;;;4.61;79.70;98775.84;6315630;22;20006;-79
2023/03/07 01:49:21;;;;;;;0.00;0.00;;;;;;;4.55;79.01;98758.75;6340833;22;20306;-78
2023/03/07 01:52:06;;;;;;;0.00;0.00;;;;;;;4.66;79.17;98773.97;6314374;22;20501;-79
2023/03/07 01:54:36;;;;;;;0.00;0.00;;;;;;;4.77;79.10;98776.69;6340702;22;20959;-80
2023/03/07 01:57:11;;;;;;;0.00;0.00;;;;;;;4.59;79.30;98746.31;6291268;22;20014;-78
2023/03/07 01:59:43;;;;;;;0.00;0.00;;;;;;;4.60;78.82;98747.13;6338027;22;20080;-78
2023/03/07 02:02:12;;;;;;;0.00;0.00;;;;;;;4.61;79.13;98749.56;6313541;22;20013;-79
2023/03/07 02:05:08;;;;;;;0.00;0.00;;;;;;;4.75;79.49;98759.91;6311051;22;20030;-80
2023/03/07 02:07:40;;;;;;;0.00;0.00;;;;;;;4.71;79.46;98755.00;6342675;22;20350;-79
2023/03/07 02:10:13;;;;;;;0.00;0.00;;;;;;;4.74;78.96;98750.16;6336800;22;20005;-81
2023/03/07 02:12:40;;;;;;;0.00;0.00;;;;;;;4.69;78.99;98740.94;6314587;22;20013;-79
2023/03/07 02:15:09;;;;;;;0.00;0.00;;;;;;;4.71;78.69;98738.75;6337710;22;20038;-79
2023/03/07 02:17:38;;;;;;;0.00;0.00;;;;;;;4.72;79.15;98734.97;6339973;22;19999;-79
2023/03/07 02:20:29;;;;;;;0.00;0.00;;;;;;;4.76;78.32;98739.84;6314038;22;20029;-79
2023/03/07 02:22:58;;;;;;;0.00;0.00;;;;;;;4.65;78.57;98710.06;6346665;22;20010;-79
2023/03/07 02:25:29;;;;;;;0.00;0.00;;;;;;;4.85;77.66;98759.91;6320167;22;19995;-79
2023/03/07 02:28:04;;;;;;;0.00;0.00;;;;;;;4.71;78.60;98727.91;6318141;22;20333;-77
2023/03/07 02:30:32;;;;;;;0.00;0.00;;;;;;;4.85;78.97;98743.66;6315765;22;20094;-78
2023/03/07 02:32:57;;;;;;;0.00;0.00;;;;;;;4.70;79.04;98734.44;6317323;22;20012;-78
2023/03/07 02:35:25;;;;;;;0.00;0.00;;;;;;;4.63;80.77;98736.59;6313332;22;20011;-77
2023/03/07 02:37:55;;;;;;;0.00;0.00;;;;;;;4.60;82.00;98742.53;6286598;22;20344;-79
2023/03/07 02:40:23;;;;;;;0.00;0.00;;;;;;;4.37;83.95;98717.56;6314548;22;19999;-79
2023/03/07 02:42:51;;;;;;;0.00;0.00;;;;;;;4.28;85.92;98743.53;6311808;22;20037;-77
2023/03/07 02:45:18;;;;;;;0.00;0.00;;;;;;;4.22;87.92;98741.91;6339405;22;20108;-78
2023/03/07 02:47:44;;;;;;;0.00;0.00;;;;;;;4.01;88.69;98713.94;6336787;22;20002;-78
2023/03/07 02:50:13;;;;;;;0.10;0.10;;;;;;;3.97;89.05;98708.25;6314885;22;20095;-78
2023/03/07 02:52:38;;;;;;;0.08;0.08;;;;;;;4.08;90.78;98729.94;6311142;22;20002;-79
2023/03/07 02:55:06;;;;;;;0.00;0.00;;;;;;;4.01;90.72;98713.94;6347129;22;20015;-79
2023/03/07 02:57:34;;;;;;;0.00;0.00;;;;;;;4.04;91.18;98718.03;6316683;22;19999;-78
2023/03/07 03:00:01;;;;;;;0.00;0.00;;;;;;;3.89;92.20;98706.06;6310437;22;20460;-78
2023/03/07 03:02:26;;;;;;;0.10;0.10;;;;;;;4.01;92.23;98724.75;6313556;22;20022;-79
2023/03/07 03:04:54;;;;;;;0.00;0.00;;;;;;;3.90;92.57;98699.56;6341841;22;20013;-79
2023/03/07 03:07:19;;;;;;;0.00;0.00;;;;;;;4.00;93.21;98717.72;6288734;22;20007;-78
2023/03/07 03:09:47;;;;;;;0.00;0.00;;;;;;;3.83;93.46;98690.91;6282022;22;20018;-78
2023/03/07 03:12:12;;;;;;;0.00;0.00;;;;;;;3.94;93.85;98705.25;6341195;22;20013;-78
2023/03/07 03:14:38;;;;;;;0.00;0.00;;;;;;;3.98;94.40;98703.66;6309030;22;20117;-80
2023/03/07 03:17:03;;;;;;;0.00;0.00;;;;;;;3.81;94.68;98683.06;6313680;22;20003;-79
2023/03/07 03:19:29;;;;;;;0.00;0.00;;;;;;;3.91;94.05;98693.06;6310400;22;20007;-77
2023/03/07 03:21:57;;;;;;;0.00;0.00;;;;;;;3.94;93.88;98691.75;6290770;22;20010;-77
2023/03/07 03:24:22;;;;;;;0.00;0.00;;;;;;;3.90;94.33;98690.63;6317889;22;19999;-79
2023/03/07 03:26:48;;;;;;;0.00;0.00;;;;;;;3.89;94.01;98683.63;6263792;22;20064;-78
2023/03/07 03:29:15;;;;;;;0.00;0.00;;;;;;;3.96;94.14;98693.09;6316972;22;20010;-80
2023/03/07 03:31:41;;;;;;;0.00;0.00;;;;;;;3.80;93.30;98658.97;6340354;22;20014;-78
2023/03/07 03:34:06;;;;;;;0.00;0.00;;;;;;;3.88;93.42;98665.75;6315981;22;19994;-78
2023/03/07 03:36:37;;;;;;;0.00;0.00;;;;;;;3.93;93.22;98684.69;6315188;22;20015;-78
2023/03/07 03:39:03;;;;;;;0.00;0.00;;;;;;;3.96;94.12;98689.59;6289218;22;19979;-79
2023/03/07 03:41:28;;;;;;;0.00;0.00;;;;;;;3.99;94.56;98695.28;6266759;22;20092;-77
2023/03/07 03:43:57;;;;;;;0.00;0.00;;;;;;;3.82;95.03;98663.03;6287625;22;20359;-79
2023/03/07 03:46:25;;;;;;;0.00;0.00;;;;;;;3.93;94.33;98682.81;6316216;22;20067;-79
2023/03/07 03:48:52;;;;;;;0.10;0.10;;;;;;;3.96;95.46;98682.28;6312785;22;20063;-78
2023/03/07 03:51:18;;;;;;;0.00;0.00;;;;;;;3.93;95.06;98680.13;6315386;22;20374;-77
2023/03/07 03:53:46;;;;;;;0.00;0.00;;;;;;;3.92;95.25;98659.56;6314567;22;19999;-79
2023/03/07 03:56:16;;;;;;;0.00;0.00;;;;;;;4.05;94.49;98682.59;6316328;22;20011;-78
2023/03/07 03:58:41;;;;;;;0.00;0.00;;;;;;;4.10;94.01;98676.38;6313464;22;20030;-79
2023/03/07 04:01:09;;;;;;;0.00;0.00;;;;;;;4.17;94.31;98676.94;6291053;22;20085;-79
2023/03/07 04:03:41;;;;;;;0.00;0.00;;;;;;;4.05;93.52;98654.72;6317394;22;19991;-80
2023/03/07 04:06:12;;;;;;;0.05;0.05;;;;;;;4.15;95.78;98679.91;6313747;22;20003;-80
2023/03/07 04:08:39;;;;;;;0.00;0.00;;;;;;;4.05;97.02;98676.38;6316540;22;20095;-77
2023/03/07 04:11:07;;;;;;;0.00;0.00;;;;;;;3.88;97.89;98671.97;6313889;22;20067;-78
2023/03/07 04:13:33;;;;;;;0.00;0.00;;;;;;;3.74;98.33;98657.31;6316817;22;20006;-79
2023/03/07 04:16:07;;;;;;;0.10;0.10;;;;;;;3.76;98.21;98668.69;6316860;22;20480;-78
2023/03/07 04:18:34;;;;;;;0.00;0.00;;;;;;;3.69;99.46;98674.31;6293851;22;20029;-79
2023/03/07 04:20:59;;;;;;;0.00;0.00;;;;;;;3.64;100.00;98667.00;6290489;22;20006;-78
2023/03/07 04:23:28;;;;;;;0.10;0.10;;;;;;;3.65;100.00;98674.06;6320927;22;20007;-78
2023/03/07 04:25:55;;;;;;;0.00;0.00;;;;;;;3.70;100.00;98685.97;6297986;22;20034;-78
2023/03/07 04:28:41;;;;;;;0.10;0.10;;;;;;;3.70;100.00;98680.56;6317734;22;20002;-76
2023/03/07 04:31:16;;;;;;;0.00;0.00;;;;;;;3.56;100.00;98662.09;6314253;22;20059;-78
2023/03/07 04:33:42;;;;;;;0.00;0.00;;;;;;;3.78;100.00;98698.97;6315329;22;19999;-78
2023/03/07 04:36:08;;;;;;;0.00;0.00;;;;;;;3.84;100.00;98681.69;6288781;22;20011;-78
2023/03/07 04:38:33;;;;;;;0.00;0.00;;;;;;;3.79;100.00;98679.78;6338993;22;20029;-80
2023/03/07 04:40:59;;;;;;;0.10;0.10;;;;;;;3.93;100.00;98700.91;6312449;22;20425;-78
2023/03/07 04:43:24;;;;;;;0.00;0.00;;;;;;;3.80;100.00;98680.59;6284415;22;20098;-78
2023/03/07 04:45:52;;;;;;;0.00;0.00;;;;;;;3.85;99.71;98688.72;6314322;22;20030;-77
2023/03/07 04:48:19;;;;;;;0.00;0.00;;;;;;;3.64;100.00;98672.41;6312323;22;19997;-78
2023/03/07 04:50:47;;;;;;;0.00;0.00;;;;;;;3.73;99.57;98694.34;6316379;22;20029;-78
2023/03/07 04:53:13;;;;;;;0.00;0.00;;;;;;;3.73;99.93;98696.25;6287638;22;20074;-78
2023/03/07 04:55:57;;;;;;;0.00;0.00;;;;;;;3.67;99.13;98698.91;6273973;22;20018;-78
2023/03/07 04:58:23;;;;;;;0.05;0.05;;;;;;;3.54;99.33;98694.00;6288097;22;20010;-77
2023/03/07 05:00:48;;;;;;;0.00;0.00;;;;;;;3.49;99.37;98683.16;6313607;22;20010;-76
2023/03/07 05:03:14;;;;;;;0.00;0.00;;;;;;;3.39;98.69;98678.50;6342021;22;19987;-80
2023/03/07 05:05:39;;;;;;;0.00;0.00;;;;;;;3.40;98.18;98682.03;6313718;22;20333;-79
2023/03/07 05:08:15;;;;;;;0.10;0.10;;;;;;;3.32;98.41;98681.44;6311776;22;20015;-80
2023/03/07 05:10:41;;;;;;;0.00;0.00;;;;;;;3.29;97.47;98687.38;6313692;22;20356;-79
2023/03/07 05:13:07;;;;;;;0.00;0.00;;;;;;;3.20;97.75;98678.13;6339816;22;20023;-79
2023/03/07 05:15:38;;;;;;;0.00;0.00;;;;;;;3.34;96.98;98704.69;6316631;22;20056;-80
2023/03/07 05:18:06;;;;;;;0.00;0.00;;;;;;;3.27;97.39;98703.03;6314295;22;20028;-80
2023/03/07 05:20:32;;;;;;;0.00;0.00;;;;;;;3.02;97.12;98670.44;6315239;22;20001;-79
2023/03/07 05:23:01;;;;;;;0.00;0.00;;;;;;;3.10;97.19;98678.88;6336712;22;20417;-79
2023/03/07 05:25:27;;;;;;;0.00;0.00;;;;;;;3.01;96.18;98674.19;6344148;22;20010;-79
2023/03/07 05:27:52;;;;;;;0.00;0.00;;;;;;;3.14;96.05;98695.38;6337843;22;20050;-79
2023/03/07 05:30:20;;;;;;;0.00;0.00;;;;;;;3.06;95.96;98679.66;6340502;22;20007;-79
2023/03/07 05:32:45;;;;;;;0.00;0.00;;;;;;;3.15;95.05;98686.19;6339262;22;20003;-80
2023/03/07 05:35:23;;;;;;;;;;;;;;;;;;;;;
2023/03/07 05:37:50;;;;;;;0.00;0.00;;;;;;;3.31;94.98;98689.81;6341775;22;20453;-78
2023/03/07 05:40:18;;;;;;;0.10;0.10;;;;;;;3.33;94.52;98698.47;6341532;22;20099;-78
2023/03/07 05:42:43;;;;;;;0.00;0.00;;;;;;;3.30;94.44;98699.81;6318141;22;20007;-78
2023/03/07 05:45:10;;;;;;;0.00;0.00;;;;;;;3.24;93.45;98703.56;6313610;22;20904;-79
2023/03/07 05:47:37;;;;;;;0.00;0.00;;;;;;;3.07;93.36;98697.50;6291977;22;20010;-79
2023/03/07 05:50:06;;;;;;;0.00;0.00;;;;;;;3.05;93.19;98707.72;6312401;22;20003;-79
2023/03/07 05:53:05;;;;;;;0.00;0.00;;;;;;;3.07;92.80;98721.78;6320140;22;20074;-80
2023/03/07 05:55:33;;;;;;;0.00;0.00;;;;;;;2.84;93.82;98685.16;6303888;22;20022;-78
2023/03/07 05:58:00;;;;;;;0.00;0.00;;;;;;;2.96;93.13;98694.72;6316082;22;20009;-78
2023/03/07 06:00:28;;;;;;;0.00;0.00;;;;;;;2.91;93.41;98691.97;6290242;22;20082;-77
2023/03/07 06:02:59;;;;;;;0.00;0.00;;;;;;;3.05;93.00;98708.56;6291501;22;20013;-78
2023/03/07 06:05:25;;;;;;;0.00;0.00;;;;;;;3.02;93.32;98697.44;6313282;22;20002;-78
2023/03/07 06:07:50;;;;;;;0.00;0.00;;;;;;;3.05;93.29;98702.31;6260617;22;19998;-78
2023/03/07 06:10:16;;;;;;;0.00;0.00;;;;;;;3.03;92.96;98699.06;6342630;22;19994;-79
2023/03/07 06:12:50;;;;;;;0.00;0.00;;;;;;;2.95;93.18;98693.06;6285536;22;20017;-79
2023/03/07 06:15:16;;;;;;;0.00;0.00;;;;;;;2.99;93.15;98687.16;6341441;22;20005;-78
2023/03/07 06:17:41;;;;;;;0.00;0.00;;;;;;;3.21;93.22;98717.56;6341666;22;20014;-78
2023/03/07 06:20:19;;;;;;;0.00;0.00;;;;;;;3.19;93.67;98719.72;6344104;22;19999;-78
2023/03/07 06:22:45;;;;;;;0.00;0.00;;;;;;;3.17;92.84;98711.06;6342922;22;20014;-79
2023/03/07 06:25:23;;;;;;;0.00;0.00;;;;;;;3.14;92.82;98711.59;6323975;22;20007;-79
2023/03/07 06:27:58;;;;;;;0.00;0.00;;;;;;;3.14;93.62;98711.59;6329591;22;20428;-79
2023/03/07 06:30:24;;;;;;;;;;;;;;;3.23;93.72;98726.22;6328147;22;20001;-78
2023/03/07 06:33:18;;;;;;;0.00;0.00;;;;;;;3.16;93.30;98722.94;6351928;22;19985;-79
2023/03/07 06:35:53;;;;;;;0.10;0.10;;;;;;;2.98;93.45;98694.44;6302818;22;20062;-79
2023/03/07 06:38:19;;;;;;;0.00;0.00;;;;;;;3.11;93.32;98706.69;6322087;22;20006;-79
2023/03/07 06:41:11;;;;;;;0.00;0.00;;;;;;;3.03;92.70;98699.06;6348940;22;20018;-78
2023/03/07 06:43:41;;;;;;;0.00;0.00;;;;;;;3.21;93.57;98709.44;6313807;22;20003;-78
2023/03/07 06:46:21;;;;;;;0.00;0.00;;;;;;;3.17;92.94;98705.66;6288544;22;20035;-78
2023/03/07 06:48:49;;;;;;;0.00;0.00;;;;;;;3.32;92.53;98719.25;6308235;22;20377;-79
2023/03/07 06:51:15;;;;;;;0.00;0.00;;;;;;;3.22;92.58;98699.47;6305219;22;20002;-78
2023/03/07 06:53:42;;;;;;;0.00;0.00;;;;;;;3.34;92.53;98720.91;6300986;22;20117;-77
2023/03/07 06:56:28;;;;;;;0.00;0.00;;;;;;;3.31;92.73;98712.25;6299615;22;20107;-78
2023/03/07 07:02:29;;;;;;;0.00;0.00;;;;;;;3.38;92.45;98708.50;6333227;22;20017;-80
2023/03/07 07:04:56;;;;;;;0.00;0.00;;;;;;;3.57;92.58;98731.31;6229005;22;20026;-78
2023/03/07 07:07:30;;;;;;;0.00;0.00;;;;;;;3.32;91.62;98692.25;6302816;22;20034;-81
2023/03/07 07:10:01;;;;;;;0.00;0.00;;;;;;;3.44;92.44;98720.97;6305169;22;20058;-79
2023/03/07 07:12:29;;;;;;;0.00;0.00;;;;;;;3.47;91.32;98728.53;6299459;22;20002;-78
2023/03/07 07:14:57;;;;;;;0.00;0.00;;;;;;;3.51;92.08;98732.34;6306066;22;20063;-75
2023/03/07 07:17:34;;;;;;;0.00;0.00;;;;;;;3.53;91.24;98727.50;6332618;22;20070;-81
2023/03/07 07:20:06;;;;;;;0.00;0.00;;;;;;;3.73;92.07;98755.75;6304152;22;20007;-75
2023/03/07 07:22:33;;;;;;;0.00;0.00;;;;;;;3.64;91.86;98722.97;6331140;22;20006;-78
2023/03/07 07:24:58;;;;;;;0.00;0.00;;;;;;;3.70;91.51;98723.81;6304614;22;20337;-79
2023/03/07 07:27:28;;;;;;;0.00;0.00;;;;;;;3.88;91.28;98730.66;6305107;22;20003;-80
2023/03/07 07:29:54;;;;;;;0.00;0.00;;;;;;;3.98;90.60;98738.81;6276066;22;20047;-79
2023/03/07 07:32:31;;;;;;;0.00;0.00;;;;;;;3.99;90.52;98719.63;6332412;22;20003;-78
2023/03/07 07:35:08;;;;;;;0.00;0.00;;;;;;;4.11;89.86;98718.59;6296197;22;20007;-80
2023/03/07 07:37:53;;;;;;;0.00;0.00;;;;;;;4.37;89.88;98738.44;6304703;22;20029;-80
2023/03/07 07:40:19;;;;;;;0.00;0.00;;;;;;;4.40;89.68;98723.56;6305818;22;20447;-79
2023/03/07 07:42:53;;;;;;;0.00;0.00;;;;;;;4.47;89.08;98727.63;6306822;22;20429;-78
2023/03/07 07:45:22;;;;;;;0.00;0.00;;;;;;;4.59;89.12;98740.91;6298141;22;20009;-77
2023/03/07 07:47:48;;;;;;;0.00;0.00;;;;;;;4.67;88.67;98743.09;6330005;22;20006;-78
2023/03/07 07:50:19;;;;;;;0.00;0.00;;;;;;;4.65;88.78;98737.13;6305056;22;20011;-80
2023/03/07 07:52:44;;;;;;;0.03;0.03;;;;;;;4.64;88.11;98730.06;6300315;22;20002;-80
2023/03/07 07:55:13;;;;;;;0.00;0.00;;;;;;;4.77;87.75;98747.69;6322531;22;20019;-79
2023/03/07 07:57:41;;;;;;;0.00;0.00;;;;;;;4.89;87.33;98755.56;6275400;22;20105;-79
2023/03/07 08:00:08;;;;;;;0.00;0.00;;;;;;;4.86;87.74;98739.84;6331547;22;20567;-78
2023/03/07 08:02:35;;;;;;;0.00;0.00;;;;;;;4.86;87.57;98751.53;6300985;22;20110;-77
2023/03/07 08:05:00;;;;;;;0.00;0.00;;;;;;;4.96;86.51;98753.41;6331927;22;20014;-76
2023/03/07 08:07:31;;;;;;;0.00;0.00;;;;;;;5.05;86.72;98770.78;6328083;22;20551;-78
2023/03/07 08:09:56;;;;;;;0.00;0.00;;;;;;;4.92;86.66;98755.06;6302897;22;20060;-79
2023/03/07 08:12:24;;;;;;;0.00;0.00;;;;;;;5.03;86.71;98753.94;6301774;22;20006;-77
2023/03/07 08:14:50;;;;;;;0.00;0.00;;;;;;;5.17;85.71;98758.84;6305994;22;20003;-78
2023/03/07 08:17:18;;;;;;;0.00;0.00;;;;;;;5.29;85.77;98753.16;6279353;22;20014;-78
2023/03/07 08:20:08;;;;;;;0.10;0.10;;;;;;;5.40;85.02;98755.59;6300910;22;20006;-77
2023/03/07 08:22:44;;;;;;;0.00;0.00;;;;;;;5.60;85.12;98762.06;6302418;22;20479;-78
2023/03/07 08:25:20;;;;;;;0.00;0.00;;;;;;;5.63;84.98;98749.84;6329988;22;20003;-77
2023/03/07 08:27:52;;;;;;;0.00;0.00;;;;;;;5.69;84.17;98752.28;6329505;22;19998;-78
2023/03/07 08:30:18;;;;;;;0.08;0.08;;;;;;;5.75;84.09;98751.19;6331627;22;20010;-79
2023/03/07 08:32:53;;;;;;;0.00;0.00;;;;;;;5.81;83.12;98740.31;6301744;22;20010;-77
2023/03/07 08:35:19;;;;;;;0.00;0.00;;;;;;;5.95;83.17;98749.50;6280390;22;20011;-78
2023/03/07 08:37:47;;;;;;;0.00;0.00;;;;;;;6.19;82.52;98754.31;6254646;22;20571;-77
2023/03/07 08:40:14;;;;;;;0.00;0.00;;;;;;;6.49;82.43;98769.66;6326868;22;20373;-78
2023/03/07 08:42:40;;;;;;;0.00;0.00;;;;;;;6.58;81.63;98757.09;6281188;22;20097;-78
2023/03/07 08:45:09;;;;;;;0.00;0.00;;;;;;;6.77;80.99;98756.47;6300679;22;19999;-77
2023/03/07 08:47:35;;;;;;;0.00;0.00;;;;;;;6.68;80.07;98750.81;6304743;22;20078;-76
2023/03/07 08:50:03;;;;;;;0.00;0.00;;;;;;;6.75;79.71;98762.19;6327570;22;20501;-78
2023/03/07 08:52:29;;;;;;;0.00;0.00;;;;;;;6.63;79.62;98748.94;6324714;22;20421;-77
2023/03/07 08:54:54;;;;;;;0.00;0.00;;;;;;;6.68;78.99;98761.69;6329836;22;20017;-78
2023/03/07 08:57:23;;;;;;;0.00;0.00;;;;;;;6.47;78.94;98741.97;6328625;22;20337;-77
2023/03/07 08:59:49;;;;;;;0.00;0.00;;;;;;;6.52;78.86;98760.94;6283647;22;20083;-76
2023/03/07 09:02:14;;;;;;;0.00;0.00;;;;;;;6.46;78.95;98760.16;6325073;22;20334;-78
2023/03/07 09:04:42;;;;;;;0.00;0.00;;;;;;;6.53;77.12;98769.94;6302879;22;20003;-77
2023/03/07 09:07:08;;;;;;;0.00;0.00;;;;;;;6.44;76.88;98756.94;6304145;22;20011;-77
2023/03/07 09:09:35;;;;;;;0.00;0.00;;;;;;;6.41;76.93;98756.66;6275289;22;20408;-77
2023/03/07 09:12:01;;;;;;;0.00;0.00;;;;;;;6.50;76.73;98770.47;6280088;22;20010;-78
2023/03/07 09:14:26;;;;;;;0.00;0.00;;;;;;;6.64;76.76;98771.47;6327561;22;20003;-77
2023/03/07 09:16:52;;;;;;;0.00;0.00;;;;;;;6.70;76.37;98759.50;6309155;22;20011;-78
2023/03/07 09:19:17;;;;;;;0.00;0.00;;;;;;;6.70;76.47;98778.53;6326887;22;20022;-78
2023/03/07 09:21:43;;;;;;;0.00;0.00;;;;;;;6.57;76.28;98760.09;6278439;22;20015;-78
2023/03/07 09:24:08;;;;;;;0.00;0.00;;;;;;;6.76;76.32;98752.94;6300059;22;20060;-79
2023/03/07 09:26:34;;;;;;;0.00;0.00;;;;;;;7.19;75.08;98786.91;6252611;22;20047;-78
2023/03/07 09:28:59;;;;;;;0.10;0.10;;;;;;;7.29;74.54;98759.63;6305506;22;20325;-77
2023/03/07 09:31:33;;;;;;;0.00;0.00;;;;;;;7.42;74.18;98764.41;6300870;22;20010;-77
2023/03/07 09:34:07;;;;;;;0.00;0.00;;;;;;;7.58;72.96;98772.41;6304179;22;20007;-77
2023/03/07 09:36:35;;;;;;;0.00;0.00;;;;;;;7.62;71.76;98773.44;6299700;22;20006;-77
2023/03/07 09:39:00;;;;;;;0.00;0.00;;;;;;;7.58;71.97;98769.69;6281699;22;20017;-78
2023/03/07 09:41:32;;;;;;;0.00;0.00;;;;;;;7.60;72.51;98781.09;6275817;22;20390;-78
2023/03/07 09:44:17;;;;;;;0.00;0.00;;;;;;;7.56;72.15;98766.44;6304121;22;20002;-77
2023/03/07 09:47:11;;;;;;;;;;;;;;;;;;;;;
2023/03/07 09:49:44;;;;;;;0.00;0.00;;;;;;;8.30;71.88;98777.09;6331689;22;20086;-78
2023/03/07 09:52:13;;;;;;;0.00;0.00;;;;;;;8.81;71.25;98781.88;6301102;22;19995;-77
2023/03/07 09:54:54;;;;;;;0.00;0.00;;;;;;;9.45;69.97;98789.66;6338005;22;20057;-77
2023/03/07 09:57:40;;;;;;;0.00;0.00;;;;;;;9.99;68.45;98791.97;6332371;22;20321;-78
2023/03/07 10:00:23;;;;;;;0.00;0.00;;;;;;;10.23;66.35;98781.66;6333940;22;20388;-78
2023/03/07 10:03:06;;;;;;;0.00;0.00;;;;;;;10.51;65.24;98781.66;6361997;22;20029;-78
2023/03/07 10:05:38;;;;;;;0.00;0.00;;;;;;;10.65;61.88;98798.84;6332554;22;20018;-78
2023/03/07 10:08:04;;;;;;;0.00;0.00;;;;;;;10.49;61.31;98794.84;6363077;22;20002;-78
2023/03/07 10:10:49;;;;;;;0.00;0.00;;;;;;;10.43;62.07;98791.41;6336303;22;20033;-77
2023/03/07 10:13:35;;;;;;;0.00;0.00;;;;;;;10.31;61.96;98794.63;6363151;22;20054;-79
2023/03/07 10:16:15;;;;;;;0.00;0.00;;;;;;;10.00;62.41;98778.00;6334098;22;20033;-79
2023/03/07 10:19:10;;;;;;;0.00;0.00;;;;;;;9.96;62.63;98793.41;6335924;22;20033;-79
2023/03/07 10:22:05;;;;;;;0.00;0.00;;;;;;;10.06;62.45;98786.91;6334388;22;20335;-79
2023/03/07 10:25:04;;;;;;;0.00;0.00;;;;;;;10.22;61.93;98790.97;6358469;22;19994;-79
2023/03/07 10:27:30;;;;;;;0.00;0.00;;;;;;;10.22;61.65;98784.69;6364840;22;20081;-80
2023/03/07 10:29:58;;;;;;;0.00;0.00;;;;;;;10.46;61.75;98798.19;6306497;22;20009;-79
2023/03/07 10:32:42;;;;;;;0.00;0.00;;;;;;;10.67;61.66;98800.47;6361989;22;20006;-79
2023/03/07 10:35:17;;;;;;;0.00;0.00;;;;;;;10.92;61.23;98788.16;6331438;22;20003;-80
2023/03/07 10:37:58;;;;;;;0.00;0.00;;;;;;;11.33;60.44;98790.78;6336400;22;20005;-79
2023/03/07 10:40:47;;;;;;;0.00;0.00;;;;;;;11.92;59.23;98789.81;6331011;22;20088;-79
2023/03/07 10:43:26;;;;;;;0.00;0.00;;;;;;;12.89;57.69;98793.69;6331615;22;20080;-78
2023/03/07 10:46:14;;;;;;;0.00;0.00;;;;;;;14.33;54.80;98805.44;6363458;22;20013;-80
2023/03/07 10:49:05;;;;;;;0.00;0.00;;;;;;;14.92;52.76;98798.31;6333724;22;20330;-79
2023/03/07 10:51:40;;;;;;;0.00;0.00;;;;;;;15.23;51.65;98805.34;6360733;22;20012;-77
2023/03/07 10:54:30;;;;;;;;;;;;;;;;;;;;;
2023/03/07 10:57:11;;;;;;;0.00;0.00;;;;;;;14.97;51.42;98822.91;6330082;22;20102;-79
2023/03/07 10:59:38;;;;;;;0.00;0.00;;;;;;;14.69;51.27;98795.88;6303141;22;20071;-77
2023/03/07 11:02:43;;;;;;;0.00;0.00;;;;;;;14.24;51.44;98812.91;6331584;22;20090;-77
2023/03/07 11:05:44;;;;;;;0.00;0.00;;;;;;;13.65;52.52;98814.34;6328878;22;20002;-76
2023/03/07 11:08:43;;;;;;;0.00;0.00;;;;;;;13.33;52.33;98810.16;6302787;22;20010;-79
2023/03/07 11:11:34;;;;;;;;;;;;;;;;;;;;;
2023/03/07 11:15:45;;;;;;;;;;;;;;;;;;;;;
2023/03/07 11:18:29;;;;;;;;;;;;;;;;;;;;;
2023/03/07 11:20:56;;;;;;;0.00;0.00;;;;;;;10.82;55.81;98820.09;6328806;22;20066;-77
2023/03/07 11:23:31;;;;;;;0.00;0.00;;;;;;;10.25;56.68;98800.47;6333588;22;19995;-79
2023/03/07 11:26:21;;;;;;;0.00;0.00;;;;;;;10.16;57.50;98824.94;6329284;22;19999;-80
2023/03/07 11:29:02;;;;;;;0.00;0.00;;;;;;;9.83;56.08;98827.75;6306632;22;20007;-79
2023/03/07 11:31:56;;;;;;;0.00;0.00;;;;;;;9.39;56.80;98831.75;6325901;22;20011;-79
2023/03/07 11:34:58;;;;;;;0.00;0.00;;;;;;;9.15;59.01;98829.91;6307315;22;20060;-78
2023/03/07 11:37:41;;;;;;;0.10;0.10;;;;;;;9.29;59.28;98823.72;6332951;22;20055;-77
2023/03/07 11:40:10;;;;;;;0.00;0.00;;;;;;;9.51;59.38;98823.91;6301708;22;20028;-76
2023/03/07 11:42:57;;;;;;;0.00;0.00;;;;;;;9.75;59.13;98809.31;6333751;22;20011;-78
2023/03/07 11:45:46;;;;;;;0.00;0.00;;;;;;;10.02;58.21;98829.63;6305465;22;20052;-80
2023/03/07 11:48:23;;;;;;;0.00;0.00;;;;;;;10.13;58.21;98833.75;6285338;22;20686;-78
2023/03/07 11:50:56;;;;;;;0.00;0.00;;;;;;;10.12;58.16;98829.44;6335195;22;20336;-79
2023/03/07 11:53:33;;;;;;;0.10;0.10;;;;;;;10.20;58.38;98833.38;6327257;22;20006;-79
2023/03/07 11:56:11;;;;;;;0.00;0.00;;;;;;;10.48;58.34;98848.69;6305898;22;20011;-79
2023/03/07 11:59:15;;;;;;;0.00;0.00;;;;;;;10.69;57.88;98859.22;6303737;22;19999;-79
2023/03/07 12:01:44;;;;;;;0.00;0.00;;;;;;;10.71;57.65;98856.19;6303311;22;20003;-79
2023/03/07 12:04:38;;;;;;;0.00;0.00;;;;;;;10.62;57.52;98856.06;6305694;22;20834;-79
2023/03/07 12:07:12;;;;;;;0.00;0.00;;;;;;;10.52;57.81;98845.34;6333812;22;20075;-78
2023/03/07 12:09:51;;;;;;;0.00;0.00;;;;;;;10.79;57.76;98850.78;6331352;22;20006;-79
2023/03/07 12:12:26;;;;;;;0.00;0.00;;;;;;;10.97;57.44;98859.97;6306392;22;20003;-80
2023/03/07 12:15:22;;;;;;;0.00;0.00;;;;;;;11.00;56.56;98859.34;6300211;22;20706;-79
2023/03/07 12:18:22;;;;;;;0.00;0.00;;;;;;;10.94;56.41;98849.66;6306901;22;20055;-79